sensor_id;sensor_type;location;lat;lon;timestamp;temperature;humidity
10344;DHT22;5217;43.960;10.954;2023-08-01T00:00:10;26.50;97.00
10344;DHT22;5217;43.960;10.954;2023-08-01T00:02:39;26.50;97.10
10344;DHT22;5217;43.960;10.954;2023-08-01T00:05:10;26.40;97.10
10344;DHT22;5217;43.960;10.954;2023-08-01T00:07:39;26.40;97.10
10344;DHT22;5217;43.960;10.954;2023-08-01T00:10:07;26.40;97.20
10344;DHT22;5217;43.960;10.954;2023-08-01T00:12:36;26.40;97.20
10344;DHT22;5217;43.960;10.954;2023-08-01T00:15:06;26.40;97.20
10344;DHT22;5217;43.960;10.954;2023-08-01T00:17:35;26.40;97.20
10344;DHT22;5217;43.960;10.954;2023-08-01T00:20:04;26.40;97.20
10344;DHT22;5217;43.960;10.954;2023-08-01T00:22:34;26.40;97.20
10344;DHT22;5217;43.960;10.954;2023-08-01T00:25:03;26.40;97.10
10344;DHT22;5217;43.960;10.954;2023-08-01T00:27:31;26.40;97.20
10344;DHT22;5217;43.960;10.954;2023-08-01T00:30:07;26.40;97.30
10344;DHT22;5217;43.960;10.954;2023-08-01T00:32:36;26.40;97.30
10344;DHT22;5217;43.960;10.954;2023-08-01T00:35:05;26.40;97.40
10344;DHT22;5217;43.960;10.954;2023-08-01T00:37:36;26.30;97.40
10344;DHT22;5217;43.960;10.954;2023-08-01T00:40:06;26.30;97.50
10344;DHT22;5217;43.960;10.954;2023-08-01T00:42:36;26.30;97.50
10344;DHT22;5217;43.960;10.954;2023-08-01T00:45:06;26.30;97.50
10344;DHT22;5217;43.960;10.954;2023-08-01T00:47:35;26.30;97.70
10344;DHT22;5217;43.960;10.954;2023-08-01T00:50:04;26.30;97.70
10344;DHT22;5217;43.960;10.954;2023-08-01T00:52:35;26.20;97.70
10344;DHT22;5217;43.960;10.954;2023-08-01T00:55:04;26.30;97.80
10344;DHT22;5217;43.960;10.954;2023-08-01T00:57:33;26.20;97.90
10344;DHT22;5217;43.960;10.954;2023-08-01T01:00:02;26.20;98.00
10344;DHT22;5217;43.960;10.954;2023-08-01T01:02:30;26.20;98.10
10344;DHT22;5217;43.960;10.954;2023-08-01T01:04:58;26.20;98.10
10344;DHT22;5217;43.960;10.954;2023-08-01T01:07:28;26.20;98.10
10344;DHT22;5217;43.960;10.954;2023-08-01T01:09:58;26.10;98.20
10344;DHT22;5217;43.960;10.954;2023-08-01T01:12:26;26.10;98.20
10344;DHT22;5217;43.960;10.954;2023-08-01T01:14:55;26.00;98.20
10344;DHT22;5217;43.960;10.954;2023-08-01T01:17:24;26.00;98.20
10344;DHT22;5217;43.960;10.954;2023-08-01T01:19:53;26.00;98.30
10344;DHT22;5217;43.960;10.954;2023-08-01T01:22:23;26.00;98.30
10344;DHT22;5217;43.960;10.954;2023-08-01T01:24:54;26.00;98.30
10344;DHT22;5217;43.960;10.954;2023-08-01T01:27:23;26.00;98.30
10344;DHT22;5217;43.960;10.954;2023-08-01T01:29:52;26.00;98.20
10344;DHT22;5217;43.960;10.954;2023-08-01T01:32:21;26.10;98.30
10344;DHT22;5217;43.960;10.954;2023-08-01T01:34:50;26.00;98.30
10344;DHT22;5217;43.960;10.954;2023-08-01T01:37:18;26.00;98.30
10344;DHT22;5217;43.960;10.954;2023-08-01T01:39:48;26.00;98.30
10344;DHT22;5217;43.960;10.954;2023-08-01T01:42:17;26.00;98.30
10344;DHT22;5217;43.960;10.954;2023-08-01T01:44:46;26.00;98.30
10344;DHT22;5217;43.960;10.954;2023-08-01T01:47:14;26.00;98.30
10344;DHT22;5217;43.960;10.954;2023-08-01T01:49:43;26.00;98.40
10344;DHT22;5217;43.960;10.954;2023-08-01T01:52:11;25.90;98.40
10344;DHT22;5217;43.960;10.954;2023-08-01T01:54:40;25.80;98.50
10344;DHT22;5217;43.960;10.954;2023-08-01T01:57:10;25.80;98.60
10344;DHT22;5217;43.960;10.954;2023-08-01T01:59:39;25.80;98.60
10344;DHT22;5217;43.960;10.954;2023-08-01T02:02:07;25.80;98.70
10344;DHT22;5217;43.960;10.954;2023-08-01T02:04:36;25.80;98.70
10344;DHT22;5217;43.960;10.954;2023-08-01T02:07:05;25.80;98.80
10344;DHT22;5217;43.960;10.954;2023-08-01T02:09:34;25.70;98.80
10344;DHT22;5217;43.960;10.954;2023-08-01T02:12:02;25.70;98.90
10344;DHT22;5217;43.960;10.954;2023-08-01T02:14:33;25.70;99.10
10344;DHT22;5217;43.960;10.954;2023-08-01T02:17:02;25.70;99.10
10344;DHT22;5217;43.960;10.954;2023-08-01T02:19:30;25.70;99.20
10344;DHT22;5217;43.960;10.954;2023-08-01T02:21:59;25.60;99.30
10344;DHT22;5217;43.960;10.954;2023-08-01T02:24:28;25.60;99.40
10344;DHT22;5217;43.960;10.954;2023-08-01T02:26:56;25.60;99.40
10344;DHT22;5217;43.960;10.954;2023-08-01T02:29:25;25.60;99.50
10344;DHT22;5217;43.960;10.954;2023-08-01T02:31:55;25.60;99.50
10344;DHT22;5217;43.960;10.954;2023-08-01T02:34:24;25.60;99.90
10344;DHT22;5217;43.960;10.954;2023-08-01T02:36:53;25.60;99.70
10344;DHT22;5217;43.960;10.954;2023-08-01T02:39:21;25.50;99.80
10344;DHT22;5217;43.960;10.954;2023-08-01T02:41:50;25.50;99.90
10344;DHT22;5217;43.960;10.954;2023-08-01T02:44:18;25.50;99.90
10344;DHT22;5217;43.960;10.954;2023-08-01T02:46:47;25.50;99.90
10344;DHT22;5217;43.960;10.954;2023-08-01T02:49:17;25.50;99.90
10344;DHT22;5217;43.960;10.954;2023-08-01T02:51:45;25.40;99.90
10344;DHT22;5217;43.960;10.954;2023-08-01T02:54:13;25.50;99.90
10344;DHT22;5217;43.960;10.954;2023-08-01T02:56:42;25.50;99.90
10344;DHT22;5217;43.960;10.954;2023-08-01T02:59:10;25.50;99.90
10344;DHT22;5217;43.960;10.954;2023-08-01T03:01:39;25.50;99.90
10344;DHT22;5217;43.960;10.954;2023-08-01T03:04:07;25.40;99.90
10344;DHT22;5217;43.960;10.954;2023-08-01T03:06:37;25.40;99.90
10344;DHT22;5217;43.960;10.954;2023-08-01T03:09:06;25.40;99.90
10344;DHT22;5217;43.960;10.954;2023-08-01T03:11:35;25.30;99.90
10344;DHT22;5217;43.960;10.954;2023-08-01T03:14:04;25.30;99.90
10344;DHT22;5217;43.960;10.954;2023-08-01T03:16:33;25.30;99.90
10344;DHT22;5217;43.960;10.954;2023-08-01T03:19:01;25.30;99.90
10344;DHT22;5217;43.960;10.954;2023-08-01T03:21:32;25.30;99.90
10344;DHT22;5217;43.960;10.954;2023-08-01T03:24:03;25.30;99.90
10344;DHT22;5217;43.960;10.954;2023-08-01T03:26:35;25.30;99.90
10344;DHT22;5217;43.960;10.954;2023-08-01T03:29:04;25.30;99.90
10344;DHT22;5217;43.960;10.954;2023-08-01T03:31:33;25.30;99.90
10344;DHT22;5217;43.960;10.954;2023-08-01T03:34:02;25.30;99.90
10344;DHT22;5217;43.960;10.954;2023-08-01T03:36:30;25.30;99.90
10344;DHT22;5217;43.960;10.954;2023-08-01T03:39:02;25.30;99.90
10344;DHT22;5217;43.960;10.954;2023-08-01T03:41:32;25.20;99.90
10344;DHT22;5217;43.960;10.954;2023-08-01T03:44:00;25.20;99.90
10344;DHT22;5217;43.960;10.954;2023-08-01T03:46:29;25.20;99.90
10344;DHT22;5217;43.960;10.954;2023-08-01T03:48:57;25.20;99.90
10344;DHT22;5217;43.960;10.954;2023-08-01T03:51:25;25.20;99.90
10344;DHT22;5217;43.960;10.954;2023-08-01T03:53:54;25.20;99.90
10344;DHT22;5217;43.960;10.954;2023-08-01T03:56:40;25.20;99.90
10344;DHT22;5217;43.960;10.954;2023-08-01T03:59:12;25.10;99.90
10344;DHT22;5217;43.960;10.954;2023-08-01T04:01:41;25.10;99.90
10344;DHT22;5217;43.960;10.954;2023-08-01T04:04:10;25.10;99.90
10344;DHT22;5217;43.960;10.954;2023-08-01T04:06:40;25.10;99.90
10344;DHT22;5217;43.960;10.954;2023-08-01T04:09:09;25.10;99.90
10344;DHT22;5217;43.960;10.954;2023-08-01T04:11:39;25.10;99.90
10344;DHT22;5217;43.960;10.954;2023-08-01T04:14:08;25.10;99.90
10344;DHT22;5217;43.960;10.954;2023-08-01T04:16:36;25.10;99.90
10344;DHT22;5217;43.960;10.954;2023-08-01T04:19:05;25.10;99.90
10344;DHT22;5217;43.960;10.954;2023-08-01T04:21:34;25.00;99.90
10344;DHT22;5217;43.960;10.954;2023-08-01T04:24:02;25.00;99.90
10344;DHT22;5217;43.960;10.954;2023-08-01T04:26:31;25.00;99.90
10344;DHT22;5217;43.960;10.954;2023-08-01T04:29:00;25.00;99.90
10344;DHT22;5217;43.960;10.954;2023-08-01T04:31:29;25.00;99.90
10344;DHT22;5217;43.960;10.954;2023-08-01T04:33:57;25.00;99.90
10344;DHT22;5217;43.960;10.954;2023-08-01T04:36:25;25.00;99.90
10344;DHT22;5217;43.960;10.954;2023-08-01T04:38:54;25.00;99.90
10344;DHT22;5217;43.960;10.954;2023-08-01T04:41:22;25.00;99.90
10344;DHT22;5217;43.960;10.954;2023-08-01T04:43:50;25.00;99.90
10344;DHT22;5217;43.960;10.954;2023-08-01T04:46:20;25.00;99.90
10344;DHT22;5217;43.960;10.954;2023-08-01T04:48:49;25.00;99.90
10344;DHT22;5217;43.960;10.954;2023-08-01T04:51:17;24.90;99.90
10344;DHT22;5217;43.960;10.954;2023-08-01T04:53:45;24.90;99.90
10344;DHT22;5217;43.960;10.954;2023-08-01T04:56:14;24.90;99.90
10344;DHT22;5217;43.960;10.954;2023-08-01T04:58:42;24.90;99.90
10344;DHT22;5217;43.960;10.954;2023-08-01T05:01:11;24.90;99.90
10344;DHT22;5217;43.960;10.954;2023-08-01T05:03:41;24.90;99.90
10344;DHT22;5217;43.960;10.954;2023-08-01T05:06:09;24.90;99.90
10344;DHT22;5217;43.960;10.954;2023-08-01T05:08:37;24.90;99.90
10344;DHT22;5217;43.960;10.954;2023-08-01T05:11:06;24.90;99.90
10344;DHT22;5217;43.960;10.954;2023-08-01T05:13:34;24.90;99.90
10344;DHT22;5217;43.960;10.954;2023-08-01T05:16:03;24.90;99.90
10344;DHT22;5217;43.960;10.954;2023-08-01T05:18:31;24.90;99.90
10344;DHT22;5217;43.960;10.954;2023-08-01T05:21:01;24.90;99.90
10344;DHT22;5217;43.960;10.954;2023-08-01T05:23:29;24.90;99.90
10344;DHT22;5217;43.960;10.954;2023-08-01T05:25:58;24.90;99.90
10344;DHT22;5217;43.960;10.954;2023-08-01T05:28:26;24.90;99.90
10344;DHT22;5217;43.960;10.954;2023-08-01T05:30:55;24.90;99.90
10344;DHT22;5217;43.960;10.954;2023-08-01T05:33:23;24.90;99.90
10344;DHT22;5217;43.960;10.954;2023-08-01T05:35:52;24.90;99.90
10344;DHT22;5217;43.960;10.954;2023-08-01T05:38:21;24.90;99.90
10344;DHT22;5217;43.960;10.954;2023-08-01T05:40:50;24.90;99.90
10344;DHT22;5217;43.960;10.954;2023-08-01T05:43:18;25.00;99.90
10344;DHT22;5217;43.960;10.954;2023-08-01T05:45:47;25.00;99.90
10344;DHT22;5217;43.960;10.954;2023-08-01T05:48:19;25.00;99.90
10344;DHT22;5217;43.960;10.954;2023-08-01T05:50:47;25.00;99.90
10344;DHT22;5217;43.960;10.954;2023-08-01T05:53:15;25.00;99.90
10344;DHT22;5217;43.960;10.954;2023-08-01T05:55:45;25.00;99.90
10344;DHT22;5217;43.960;10.954;2023-08-01T05:58:14;25.00;99.90
10344;DHT22;5217;43.960;10.954;2023-08-01T06:00:42;25.00;99.90
10344;DHT22;5217;43.960;10.954;2023-08-01T06:03:10;25.00;99.90
10344;DHT22;5217;43.960;10.954;2023-08-01T06:05:40;25.00;99.90
10344;DHT22;5217;43.960;10.954;2023-08-01T06:08:08;25.00;99.90
10344;DHT22;5217;43.960;10.954;2023-08-01T06:10:37;25.00;99.90
10344;DHT22;5217;43.960;10.954;2023-08-01T06:13:05;25.00;99.90
10344;DHT22;5217;43.960;10.954;2023-08-01T06:15:34;25.00;99.90
10344;DHT22;5217;43.960;10.954;2023-08-01T06:18:03;25.00;99.90
10344;DHT22;5217;43.960;10.954;2023-08-01T06:20:31;25.10;99.90
10344;DHT22;5217;43.960;10.954;2023-08-01T06:22:59;25.00;99.90
10344;DHT22;5217;43.960;10.954;2023-08-01T06:25:28;25.10;99.90
10344;DHT22;5217;43.960;10.954;2023-08-01T06:27:56;25.10;99.90
10344;DHT22;5217;43.960;10.954;2023-08-01T06:30:26;25.10;99.90
10344;DHT22;5217;43.960;10.954;2023-08-01T06:32:55;25.10;99.90
10344;DHT22;5217;43.960;10.954;2023-08-01T06:35:23;25.20;99.90
10344;DHT22;5217;43.960;10.954;2023-08-01T06:37:52;25.20;99.90
10344;DHT22;5217;43.960;10.954;2023-08-01T06:40:20;25.20;99.90
10344;DHT22;5217;43.960;10.954;2023-08-01T06:42:48;25.20;99.90
10344;DHT22;5217;43.960;10.954;2023-08-01T06:45:17;25.20;99.90
10344;DHT22;5217;43.960;10.954;2023-08-01T06:47:46;25.20;99.90
10344;DHT22;5217;43.960;10.954;2023-08-01T06:50:15;25.20;99.90
10344;DHT22;5217;43.960;10.954;2023-08-01T06:52:44;25.20;99.90
10344;DHT22;5217;43.960;10.954;2023-08-01T06:55:12;25.20;99.90
10344;DHT22;5217;43.960;10.954;2023-08-01T06:57:41;25.20;99.90
10344;DHT22;5217;43.960;10.954;2023-08-01T07:00:10;25.20;99.90
10344;DHT22;5217;43.960;10.954;2023-08-01T07:02:39;25.20;99.90
10344;DHT22;5217;43.960;10.954;2023-08-01T07:05:09;25.20;99.90
10344;DHT22;5217;43.960;10.954;2023-08-01T07:07:37;25.20;99.90
10344;DHT22;5217;43.960;10.954;2023-08-01T07:10:07;25.20;99.90
10344;DHT22;5217;43.960;10.954;2023-08-01T07:12:35;25.20;99.90
10344;DHT22;5217;43.960;10.954;2023-08-01T07:15:05;25.20;99.90
10344;DHT22;5217;43.960;10.954;2023-08-01T07:17:34;25.20;99.90
10344;DHT22;5217;43.960;10.954;2023-08-01T07:20:03;25.20;99.90
10344;DHT22;5217;43.960;10.954;2023-08-01T07:22:33;25.30;99.90
10344;DHT22;5217;43.960;10.954;2023-08-01T07:25:01;25.30;99.90
10344;DHT22;5217;43.960;10.954;2023-08-01T07:27:29;25.30;99.90
10344;DHT22;5217;43.960;10.954;2023-08-01T07:29:58;25.30;99.90
10344;DHT22;5217;43.960;10.954;2023-08-01T07:32:26;25.40;99.90
10344;DHT22;5217;43.960;10.954;2023-08-01T07:34:55;25.30;99.90
10344;DHT22;5217;43.960;10.954;2023-08-01T07:37:23;25.30;99.90
10344;DHT22;5217;43.960;10.954;2023-08-01T07:39:53;25.40;99.90
10344;DHT22;5217;43.960;10.954;2023-08-01T07:42:24;25.40;99.90
10344;DHT22;5217;43.960;10.954;2023-08-01T07:44:52;25.40;99.90
10344;DHT22;5217;43.960;10.954;2023-08-01T07:47:21;25.40;99.90
10344;DHT22;5217;43.960;10.954;2023-08-01T07:49:52;25.40;99.90
10344;DHT22;5217;43.960;10.954;2023-08-01T07:52:20;25.40;99.90
10344;DHT22;5217;43.960;10.954;2023-08-01T07:54:49;25.40;99.90
10344;DHT22;5217;43.960;10.954;2023-08-01T07:57:22;25.30;99.90
10344;DHT22;5217;43.960;10.954;2023-08-01T07:59:50;25.40;99.90
10344;DHT22;5217;43.960;10.954;2023-08-01T08:02:18;25.40;99.90
10344;DHT22;5217;43.960;10.954;2023-08-01T08:04:47;25.40;99.90
10344;DHT22;5217;43.960;10.954;2023-08-01T08:07:15;25.50;99.90
10344;DHT22;5217;43.960;10.954;2023-08-01T08:09:43;25.40;99.90
10344;DHT22;5217;43.960;10.954;2023-08-01T08:12:12;25.50;99.90
10344;DHT22;5217;43.960;10.954;2023-08-01T08:14:42;25.50;99.90
10344;DHT22;5217;43.960;10.954;2023-08-01T08:17:10;25.50;99.90
10344;DHT22;5217;43.960;10.954;2023-08-01T08:19:38;25.50;99.90
10344;DHT22;5217;43.960;10.954;2023-08-01T08:22:07;25.50;99.90
10344;DHT22;5217;43.960;10.954;2023-08-01T08:24:35;25.50;99.90
10344;DHT22;5217;43.960;10.954;2023-08-01T08:27:05;25.50;99.90
10344;DHT22;5217;43.960;10.954;2023-08-01T08:29:33;25.50;99.90
10344;DHT22;5217;43.960;10.954;2023-08-01T08:32:04;25.50;99.90
10344;DHT22;5217;43.960;10.954;2023-08-01T08:34:32;25.60;99.90
10344;DHT22;5217;43.960;10.954;2023-08-01T08:37:00;25.60;99.90
10344;DHT22;5217;43.960;10.954;2023-08-01T08:39:29;25.60;99.90
10344;DHT22;5217;43.960;10.954;2023-08-01T08:41:57;25.60;99.90
10344;DHT22;5217;43.960;10.954;2023-08-01T08:44:27;25.70;99.90
10344;DHT22;5217;43.960;10.954;2023-08-01T08:47:02;25.70;99.90
10344;DHT22;5217;43.960;10.954;2023-08-01T08:49:32;25.70;99.90
10344;DHT22;5217;43.960;10.954;2023-08-01T08:52:01;25.70;99.90
10344;DHT22;5217;43.960;10.954;2023-08-01T08:54:31;25.70;99.90
10344;DHT22;5217;43.960;10.954;2023-08-01T08:57:00;25.70;99.90
10344;DHT22;5217;43.960;10.954;2023-08-01T08:59:29;25.70;99.90
10344;DHT22;5217;43.960;10.954;2023-08-01T09:01:58;25.80;99.90
10344;DHT22;5217;43.960;10.954;2023-08-01T09:04:28;25.80;99.90
10344;DHT22;5217;43.960;10.954;2023-08-01T09:07:01;25.80;99.90
10344;DHT22;5217;43.960;10.954;2023-08-01T09:09:31;25.80;99.90
10344;DHT22;5217;43.960;10.954;2023-08-01T09:12:00;25.80;99.90
10344;DHT22;5217;43.960;10.954;2023-08-01T09:14:29;25.80;99.90
10344;DHT22;5217;43.960;10.954;2023-08-01T09:17:06;25.80;99.90
10344;DHT22;5217;43.960;10.954;2023-08-01T09:19:35;25.90;99.90
10344;DHT22;5217;43.960;10.954;2023-08-01T09:22:11;25.80;99.90
10344;DHT22;5217;43.960;10.954;2023-08-01T09:24:50;25.80;99.90
10344;DHT22;5217;43.960;10.954;2023-08-01T09:27:21;25.90;99.90
10344;DHT22;5217;43.960;10.954;2023-08-01T09:29:50;25.90;99.90
10344;DHT22;5217;43.960;10.954;2023-08-01T09:32:18;25.90;99.90
10344;DHT22;5217;43.960;10.954;2023-08-01T09:34:47;25.90;99.90
10344;DHT22;5217;43.960;10.954;2023-08-01T09:37:17;25.90;99.90
10344;DHT22;5217;43.960;10.954;2023-08-01T09:39:53;25.90;99.90
10344;DHT22;5217;43.960;10.954;2023-08-01T09:42:22;26.00;99.90
10344;DHT22;5217;43.960;10.954;2023-08-01T09:44:51;26.00;99.90
10344;DHT22;5217;43.960;10.954;2023-08-01T09:47:19;26.00;99.90
10344;DHT22;5217;43.960;10.954;2023-08-01T09:49:48;26.00;99.90
10344;DHT22;5217;43.960;10.954;2023-08-01T09:52:27;26.10;99.90
10344;DHT22;5217;43.960;10.954;2023-08-01T09:54:56;26.10;99.90
10344;DHT22;5217;43.960;10.954;2023-08-01T09:57:27;26.10;99.90
10344;DHT22;5217;43.960;10.954;2023-08-01T09:59:57;26.10;99.90
10344;DHT22;5217;43.960;10.954;2023-08-01T10:02:28;26.10;99.90
10344;DHT22;5217;43.960;10.954;2023-08-01T10:04:58;26.10;99.90
10344;DHT22;5217;43.960;10.954;2023-08-01T10:07:30;26.20;99.90
10344;DHT22;5217;43.960;10.954;2023-08-01T10:10:00;26.20;99.90
10344;DHT22;5217;43.960;10.954;2023-08-01T10:12:30;26.20;99.90
10344;DHT22;5217;43.960;10.954;2023-08-01T10:14:59;26.20;99.90
10344;DHT22;5217;43.960;10.954;2023-08-01T10:17:28;26.20;99.90
10344;DHT22;5217;43.960;10.954;2023-08-01T10:19:57;26.20;99.90
10344;DHT22;5217;43.960;10.954;2023-08-01T10:22:26;26.20;99.90
10344;DHT22;5217;43.960;10.954;2023-08-01T10:24:56;26.30;99.90
10344;DHT22;5217;43.960;10.954;2023-08-01T10:27:25;26.30;99.90
10344;DHT22;5217;43.960;10.954;2023-08-01T10:29:57;26.40;99.90
10344;DHT22;5217;43.960;10.954;2023-08-01T10:32:32;26.40;99.90
10344;DHT22;5217;43.960;10.954;2023-08-01T10:35:02;26.40;99.90
10344;DHT22;5217;43.960;10.954;2023-08-01T10:37:41;26.40;99.90
10344;DHT22;5217;43.960;10.954;2023-08-01T10:40:11;26.40;99.90
10344;DHT22;5217;43.960;10.954;2023-08-01T10:42:43;26.50;99.90
10344;DHT22;5217;43.960;10.954;2023-08-01T10:45:23;26.50;99.90
10344;DHT22;5217;43.960;10.954;2023-08-01T10:48:07;26.50;99.90
10344;DHT22;5217;43.960;10.954;2023-08-01T10:50:35;26.60;99.90
10344;DHT22;5217;43.960;10.954;2023-08-01T10:53:06;26.60;99.90
10344;DHT22;5217;43.960;10.954;2023-08-01T10:55:43;26.70;99.90
10344;DHT22;5217;43.960;10.954;2023-08-01T10:58:12;26.70;99.90
10344;DHT22;5217;43.960;10.954;2023-08-01T11:00:42;26.70;99.90
10344;DHT22;5217;43.960;10.954;2023-08-01T11:03:12;26.70;99.90
10344;DHT22;5217;43.960;10.954;2023-08-01T11:05:43;26.80;99.90
10344;DHT22;5217;43.960;10.954;2023-08-01T11:08:11;26.80;99.90
10344;DHT22;5217;43.960;10.954;2023-08-01T11:10:41;26.90;99.90
10344;DHT22;5217;43.960;10.954;2023-08-01T11:13:17;26.90;99.90
10344;DHT22;5217;43.960;10.954;2023-08-01T11:15:46;27.00;99.90
10344;DHT22;5217;43.960;10.954;2023-08-01T11:18:14;27.00;99.90
10344;DHT22;5217;43.960;10.954;2023-08-01T11:20:43;27.00;99.90
10344;DHT22;5217;43.960;10.954;2023-08-01T11:23:12;27.00;99.90
10344;DHT22;5217;43.960;10.954;2023-08-01T11:25:43;27.00;99.90
10344;DHT22;5217;43.960;10.954;2023-08-01T11:28:17;27.10;99.90
10344;DHT22;5217;43.960;10.954;2023-08-01T11:30:46;27.10;99.90
10344;DHT22;5217;43.960;10.954;2023-08-01T11:33:15;27.10;99.90
10344;DHT22;5217;43.960;10.954;2023-08-01T11:35:44;27.20;99.90
10344;DHT22;5217;43.960;10.954;2023-08-01T11:38:13;27.20;99.90
10344;DHT22;5217;43.960;10.954;2023-08-01T11:40:44;27.20;99.90
10344;DHT22;5217;43.960;10.954;2023-08-01T11:43:13;27.20;99.90
10344;DHT22;5217;43.960;10.954;2023-08-01T11:45:51;27.30;99.90
10344;DHT22;5217;43.960;10.954;2023-08-01T11:48:22;27.30;99.90
10344;DHT22;5217;43.960;10.954;2023-08-01T11:50:57;27.40;99.90
10344;DHT22;5217;43.960;10.954;2023-08-01T11:53:26;27.40;99.90
10344;DHT22;5217;43.960;10.954;2023-08-01T11:55:57;27.40;99.90
10344;DHT22;5217;43.960;10.954;2023-08-01T11:58:29;27.50;99.90
10344;DHT22;5217;43.960;10.954;2023-08-01T12:01:08;27.40;99.90
10344;DHT22;5217;43.960;10.954;2023-08-01T12:03:44;27.50;99.90
10344;DHT22;5217;43.960;10.954;2023-08-01T12:06:12;27.50;99.90
10344;DHT22;5217;43.960;10.954;2023-08-01T12:08:43;27.60;99.90
10344;DHT22;5217;43.960;10.954;2023-08-01T12:11:20;27.60;99.90
10344;DHT22;5217;43.960;10.954;2023-08-01T12:14:01;27.70;99.90
10344;DHT22;5217;43.960;10.954;2023-08-01T12:16:29;27.60;99.90
10344;DHT22;5217;43.960;10.954;2023-08-01T12:18:58;27.70;99.90
10344;DHT22;5217;43.960;10.954;2023-08-01T12:21:28;27.70;99.90
10344;DHT22;5217;43.960;10.954;2023-08-01T12:23:57;27.70;99.90
10344;DHT22;5217;43.960;10.954;2023-08-01T12:26:27;27.80;99.90
10344;DHT22;5217;43.960;10.954;2023-08-01T12:28:56;27.80;99.40
10344;DHT22;5217;43.960;10.954;2023-08-01T12:31:25;27.80;99.40
10344;DHT22;5217;43.960;10.954;2023-08-01T12:33:54;27.90;99.20
10344;DHT22;5217;43.960;10.954;2023-08-01T12:36:23;27.90;98.50
10344;DHT22;5217;43.960;10.954;2023-08-01T12:38:52;27.90;98.60
10344;DHT22;5217;43.960;10.954;2023-08-01T12:41:20;28.00;99.10
10344;DHT22;5217;43.960;10.954;2023-08-01T12:43:50;28.00;98.70
10344;DHT22;5217;43.960;10.954;2023-08-01T12:46:19;28.00;98.80
10344;DHT22;5217;43.960;10.954;2023-08-01T12:48:47;28.00;98.90
10344;DHT22;5217;43.960;10.954;2023-08-01T12:51:16;28.00;98.70
10344;DHT22;5217;43.960;10.954;2023-08-01T12:53:44;28.00;98.90
10344;DHT22;5217;43.960;10.954;2023-08-01T12:56:13;28.00;98.70
10344;DHT22;5217;43.960;10.954;2023-08-01T12:58:41;28.00;98.40
10344;DHT22;5217;43.960;10.954;2023-08-01T13:01:11;28.10;98.20
10344;DHT22;5217;43.960;10.954;2023-08-01T13:03:40;28.10;98.40
10344;DHT22;5217;43.960;10.954;2023-08-01T13:06:11;28.10;98.60
10344;DHT22;5217;43.960;10.954;2023-08-01T13:08:40;28.10;98.30
10344;DHT22;5217;43.960;10.954;2023-08-01T13:11:12;28.10;97.90
10344;DHT22;5217;43.960;10.954;2023-08-01T13:13:42;28.10;97.80
10344;DHT22;5217;43.960;10.954;2023-08-01T13:16:14;28.10;98.30
10344;DHT22;5217;43.960;10.954;2023-08-01T13:18:44;28.10;98.40
10344;DHT22;5217;43.960;10.954;2023-08-01T13:21:15;28.20;98.40
10344;DHT22;5217;43.960;10.954;2023-08-01T13:23:45;28.20;98.60
10344;DHT22;5217;43.960;10.954;2023-08-01T13:26:14;28.30;98.80
10344;DHT22;5217;43.960;10.954;2023-08-01T13:28:43;28.30;98.80
10344;DHT22;5217;43.960;10.954;2023-08-01T13:31:13;28.30;98.50
10344;DHT22;5217;43.960;10.954;2023-08-01T13:33:41;28.30;98.50
10344;DHT22;5217;43.960;10.954;2023-08-01T13:36:10;28.30;98.60
10344;DHT22;5217;43.960;10.954;2023-08-01T13:38:38;28.30;98.80
10344;DHT22;5217;43.960;10.954;2023-08-01T13:41:06;28.40;98.70
10344;DHT22;5217;43.960;10.954;2023-08-01T13:43:35;28.40;98.90
10344;DHT22;5217;43.960;10.954;2023-08-01T13:46:11;28.40;98.80
10344;DHT22;5217;43.960;10.954;2023-08-01T13:48:56;28.40;98.50
10344;DHT22;5217;43.960;10.954;2023-08-01T13:51:25;28.40;98.20
10344;DHT22;5217;43.960;10.954;2023-08-01T13:53:57;28.40;98.10
10344;DHT22;5217;43.960;10.954;2023-08-01T13:56:26;28.30;98.10
10344;DHT22;5217;43.960;10.954;2023-08-01T13:58:54;28.30;98.50
10344;DHT22;5217;43.960;10.954;2023-08-01T14:01:22;28.30;98.20
10344;DHT22;5217;43.960;10.954;2023-08-01T14:03:51;28.30;98.40
10344;DHT22;5217;43.960;10.954;2023-08-01T14:06:20;28.30;98.60
10344;DHT22;5217;43.960;10.954;2023-08-01T14:08:49;28.30;98.60
10344;DHT22;5217;43.960;10.954;2023-08-01T14:11:17;28.30;98.70
10344;DHT22;5217;43.960;10.954;2023-08-01T14:13:46;28.40;99.10
10344;DHT22;5217;43.960;10.954;2023-08-01T14:16:14;28.40;99.20
10344;DHT22;5217;43.960;10.954;2023-08-01T14:18:43;28.50;99.10
10344;DHT22;5217;43.960;10.954;2023-08-01T14:21:12;28.40;99.10
10344;DHT22;5217;43.960;10.954;2023-08-01T14:23:42;28.50;99.10
10344;DHT22;5217;43.960;10.954;2023-08-01T14:26:10;28.50;99.30
10344;DHT22;5217;43.960;10.954;2023-08-01T14:28:38;28.50;99.50
10344;DHT22;5217;43.960;10.954;2023-08-01T14:31:07;28.50;99.40
10344;DHT22;5217;43.960;10.954;2023-08-01T14:33:35;28.60;99.40
10344;DHT22;5217;43.960;10.954;2023-08-01T14:36:08;28.60;99.70
10344;DHT22;5217;43.960;10.954;2023-08-01T14:38:41;28.60;99.70
10344;DHT22;5217;43.960;10.954;2023-08-01T14:41:11;28.60;99.70
10344;DHT22;5217;43.960;10.954;2023-08-01T14:44:02;28.60;99.90
10344;DHT22;5217;43.960;10.954;2023-08-01T14:46:32;28.60;99.90
10344;DHT22;5217;43.960;10.954;2023-08-01T14:49:02;28.60;99.70
10344;DHT22;5217;43.960;10.954;2023-08-01T14:51:30;28.60;99.40
10344;DHT22;5217;43.960;10.954;2023-08-01T14:54:00;28.60;99.50
10344;DHT22;5217;43.960;10.954;2023-08-01T14:56:29;28.50;99.40
10344;DHT22;5217;43.960;10.954;2023-08-01T14:58:57;28.60;99.40
10344;DHT22;5217;43.960;10.954;2023-08-01T15:01:26;28.60;99.30
10344;DHT22;5217;43.960;10.954;2023-08-01T15:03:55;28.50;98.80
10344;DHT22;5217;43.960;10.954;2023-08-01T15:06:24;28.50;98.50
10344;DHT22;5217;43.960;10.954;2023-08-01T15:08:53;28.50;98.30
10344;DHT22;5217;43.960;10.954;2023-08-01T15:11:23;28.50;97.90
10344;DHT22;5217;43.960;10.954;2023-08-01T15:13:52;28.50;97.90
10344;DHT22;5217;43.960;10.954;2023-08-01T15:16:20;28.50;98.30
10344;DHT22;5217;43.960;10.954;2023-08-01T15:18:49;28.50;97.90
10344;DHT22;5217;43.960;10.954;2023-08-01T15:21:18;28.50;97.80
10344;DHT22;5217;43.960;10.954;2023-08-01T15:23:50;28.50;97.90
10344;DHT22;5217;43.960;10.954;2023-08-01T15:26:20;28.60;98.00
10344;DHT22;5217;43.960;10.954;2023-08-01T15:28:51;28.60;98.10
10344;DHT22;5217;43.960;10.954;2023-08-01T15:31:20;28.60;98.20
10344;DHT22;5217;43.960;10.954;2023-08-01T15:33:49;28.60;97.90
10344;DHT22;5217;43.960;10.954;2023-08-01T15:36:18;28.50;97.70
10344;DHT22;5217;43.960;10.954;2023-08-01T15:38:53;28.60;97.40
10344;DHT22;5217;43.960;10.954;2023-08-01T15:41:21;28.60;97.10
10344;DHT22;5217;43.960;10.954;2023-08-01T15:43:51;28.50;97.10